Time;durP1;ratioP1;P1;durP2;ratioP2;P2;SDS_P1;SDS_P2;PMS_P1;PMS_P2;Temp;Humidity;BMP_temperature;BMP_pressure;BME280_temperature;BME280_humidity;BME280_pressure;Samples;Min_cycle;Max_cycle;Signal;HPM_P1;HPM_P2
2024/01/30 00:00:05;;;;;;;10.70;7.60;;;4.50;99.90;;;;;;5010940;28;20706;-65
2024/01/30 00:02:33;;;;;;;11.60;7.47;;;5.80;99.90;;;;;;5025954;28;20936;-65
2024/01/30 00:05:00;;;;;;;12.20;8.00;;;5.80;99.90;;;;;;5013995;28;20243;-65
2024/01/30 00:07:28;;;;;;;12.97;7.83;;;5.70;99.90;;;;;;5036311;28;20204;-65
2024/01/30 00:09:55;;;;;;;12.40;7.57;;;5.70;99.90;;;;;;5030757;28;20238;-64
2024/01/30 00:12:22;;;;;;;16.80;9.47;;;5.70;99.90;;;;;;5010062;28;20210;-65
2024/01/30 00:14:49;;;;;;;15.23;8.97;;;5.70;99.90;;;;;;5021584;28;20432;-65
2024/01/30 00:17:16;;;;;;;12.80;9.20;;;5.70;99.90;;;;;;5027065;28;20228;-65
2024/01/30 00:19:43;;;;;;;17.47;9.07;;;5.60;99.90;;;;;;5036209;28;20561;-64
2024/01/30 00:22:10;;;;;;;13.57;8.70;;;5.60;99.90;;;;;;5025409;28;20231;-65
2024/01/30 00:24:38;;;;;;;13.07;8.67;;;5.60;99.90;;;;;;5034669;28;20231;-65
2024/01/30 00:27:05;;;;;;;12.67;8.73;;;5.60;99.90;;;;;;5035243;28;20779;-65
2024/01/30 00:29:33;;;;;;;10.90;8.10;;;5.60;99.90;;;;;;5007021;28;20423;-64
2024/01/30 00:32:00;;;;;;;11.30;7.90;;;5.60;99.90;;;;;;5008312;28;20239;-65
2024/01/30 00:34:27;;;;;;;12.53;7.97;;;5.90;99.90;;;;;;5026862;28;20212;-65
2024/01/30 00:36:54;;;;;;;14.73;8.13;;;5.70;99.90;;;;;;5022035;28;20219;-64
2024/01/30 00:39:21;;;;;;;13.40;7.70;;;5.70;99.90;;;;;;5036357;28;20196;-65
2024/01/30 00:41:49;;;;;;;10.70;7.77;;;5.80;99.90;;;;;;5032174;28;20201;-65
2024/01/30 00:44:16;;;;;;;11.40;8.20;;;5.80;99.90;;;;;;5004431;28;20542;-65
2024/01/30 00:46:43;;;;;;;13.47;8.53;;;5.90;99.90;;;;;;5022413;28;20570;-65
2024/01/30 00:49:09;;;;;;;12.37;8.17;;;5.80;99.90;;;;;;5024876;28;20559;-65
2024/01/30 00:51:36;;;;;;;13.20;7.97;;;5.80;99.90;;;;;;5013603;28;20222;-64
2024/01/30 00:54:03;;;;;;;10.27;7.30;;;5.80;99.90;;;;;;5028590;28;20513;-65
2024/01/30 00:56:30;;;;;;;11.40;8.07;;;5.80;99.90;;;;;;5029217;28;20200;-65
2024/01/30 00:58:58;;;;;;;12.50;7.53;;;5.80;99.90;;;;;;4998971;28;20213;-65
2024/01/30 01:01:25;;;;;;;12.40;8.23;;;5.80;99.90;;;;;;4995097;28;20961;-65
2024/01/30 01:03:52;;;;;;;10.77;8.03;;;5.80;99.90;;;;;;5013229;28;20904;-65
2024/01/30 01:06:19;;;;;;;11.43;8.00;;;5.80;99.90;;;;;;5021395;28;20373;-65
2024/01/30 01:08:46;;;;;;;13.53;7.83;;;5.80;99.90;;;;;;5019615;28;20220;-65
2024/01/30 01:11:13;;;;;;;9.57;7.53;;;5.80;99.90;;;;;;5031884;28;20239;-65
2024/01/30 01:13:40;;;;;;;12.97;7.57;;;5.70;99.90;;;;;;5007229;28;20302;-65
2024/01/30 01:16:08;;;;;;;11.87;7.50;;;5.70;99.90;;;;;;5012993;28;20660;-64
2024/01/30 01:18:35;;;;;;;10.33;7.13;;;5.70;99.90;;;;;;5033948;28;20210;-65
2024/01/30 01:21:02;;;;;;;12.33;7.20;;;5.70;99.90;;;;;;5012198;28;20201;-65
2024/01/30 01:23:29;;;;;;;10.07;7.50;;;5.70;99.90;;;;;;5020208;28;20200;-65
2024/01/30 01:25:56;;;;;;;11.30;7.20;;;5.80;99.90;;;;;;5030007;28;20204;-64
2024/01/30 01:28:23;;;;;;;11.40;7.57;;;5.70;99.90;;;;;;5026837;28;20221;-64
2024/01/30 01:30:50;;;;;;;11.03;7.07;;;5.70;99.90;;;;;;4991180;28;20247;-65
2024/01/30 01:33:20;;;;;;;11.03;7.33;;;5.80;99.90;;;;;;5029610;28;20201;-65
2024/01/30 01:35:47;;;;;;;10.10;7.57;;;5.80;99.90;;;;;;5010854;28;20231;-64
2024/01/30 01:38:14;;;;;;;11.03;7.20;;;5.80;99.90;;;;;;5014884;28;20215;-65
2024/01/30 01:40:41;;;;;;;9.33;7.50;;;5.80;99.90;;;;;;5035043;28;20202;-65
2024/01/30 01:43:08;;;;;;;10.77;7.23;;;5.80;99.90;;;;;;5027110;28;20606;-65
2024/01/30 01:45:35;;;;;;;11.13;7.60;;;5.90;99.90;;;;;;4996961;28;20503;-65
2024/01/30 01:48:02;;;;;;;11.87;7.30;;;5.80;99.90;;;;;;5018907;28;20205;-65
2024/01/30 01:50:30;;;;;;;8.43;7.10;;;5.90;99.90;;;;;;5027260;28;20406;-65
2024/01/30 01:52:57;;;;;;;11.93;7.17;;;5.80;99.90;;;;;;5013918;28;20227;-65
2024/01/30 01:55:26;;;;;;;12.30;7.60;;;5.90;99.90;;;;;;5031746;28;20197;-65
2024/01/30 01:57:54;;;;;;;10.73;7.03;;;5.90;99.90;;;;;;5036959;28;20197;-65
2024/01/30 02:00:21;;;;;;;12.13;6.90;;;6.00;99.90;;;;;;5033363;28;20320;-64
2024/01/30 02:02:48;;;;;;;9.97;7.27;;;5.90;99.90;;;;;;4997847;28;20212;-64
2024/01/30 02:05:16;;;;;;;10.80;7.37;;;5.40;99.90;;;;;;5032359;28;20197;-65
2024/01/30 02:07:44;;;;;;;10.57;7.20;;;5.90;99.90;;;;;;5013314;28;20203;-65
2024/01/30 02:10:11;;;;;;;12.80;7.60;;;5.90;99.90;;;;;;5025357;28;20456;-64
2024/01/30 02:12:38;;;;;;;11.50;6.80;;;5.90;99.90;;;;;;5038725;28;20281;-65
2024/01/30 02:15:07;;;;;;;10.03;7.50;;;5.90;99.90;;;;;;5033004;28;20201;-64
2024/01/30 02:17:34;;;;;;;16.17;7.87;;;5.90;99.90;;;;;;5006181;28;20204;-65
2024/01/30 02:20:01;;;;;;;11.63;6.70;;;5.20;99.90;;;;;;5031184;28;20201;-65
2024/01/30 02:22:30;;;;;;;10.93;7.30;;;5.80;99.90;;;;;;5029841;28;20651;-64
2024/01/30 02:24:57;;;;;;;10.07;7.57;;;5.80;99.90;;;;;;5020288;28;20200;-65
2024/01/30 02:27:24;;;;;;;11.70;7.30;;;5.70;99.90;;;;;;5036931;28;20311;-65
2024/01/30 02:29:51;;;;;;;9.97;7.20;;;5.70;99.90;;;;;;5032176;28;20236;-65
2024/01/30 02:32:17;;;;;;;9.23;6.93;;;5.50;99.90;;;;;;4998674;28;20579;-65
2024/01/30 02:34:44;;;;;;;8.00;6.33;;;5.50;99.90;;;;;;5035197;28;20575;-65
2024/01/30 02:37:11;;;;;;;10.03;7.40;;;6.70;99.90;;;;;;5027916;28;20193;-64
2024/01/30 02:39:39;;;;;;;9.57;6.83;;;5.50;99.90;;;;;;5028043;28;20205;-65
2024/01/30 02:42:07;;;;;;;9.73;7.03;;;5.60;99.90;;;;;;5023445;28;21076;-64
2024/01/30 02:44:33;;;;;;;11.43;6.77;;;5.30;99.90;;;;;;5038052;28;20224;-64
2024/01/30 02:47:00;;;;;;;12.93;6.90;;;5.30;99.90;;;;;;5035713;28;20197;-64
2024/01/30 02:49:27;;;;;;;9.77;6.83;;;5.40;99.90;;;;;;5002395;28;20228;-65
2024/01/30 02:51:56;;;;;;;9.13;6.97;;;5.30;99.90;;;;;;5035040;28;20251;-65
2024/01/30 02:54:23;;;;;;;9.43;6.57;;;5.30;99.90;;;;;;5032419;28;20259;-65
2024/01/30 02:56:51;;;;;;;10.57;6.77;;;5.30;99.90;;;;;;5026653;28;20583;-64
2024/01/30 02:59:18;;;;;;;8.93;6.57;;;5.20;99.90;;;;;;5032003;28;20424;-65
2024/01/30 03:01:46;;;;;;;9.07;6.70;;;;;;;;;;5031393;28;20196;-65
2024/01/30 03:04:13;;;;;;;9.57;6.43;;;5.10;99.90;;;;;;5004340;28;20792;-65
2024/01/30 03:06:45;;;;;;;11.27;7.17;;;5.10;99.90;;;;;;5035310;28;20583;-64
2024/01/30 03:09:12;;;;;;;8.90;6.57;;;5.10;99.90;;;;;;5038035;28;20790;-64
2024/01/30 03:11:39;;;;;;;10.37;7.33;;;5.10;99.90;;;;;;5015669;28;20213;-64
2024/01/30 03:14:08;;;;;;;8.60;6.40;;;5.10;99.90;;;;;;5033871;28;20208;-64
2024/01/30 03:16:34;;;;;;;11.47;7.10;;;5.10;99.90;;;;;;5035700;28;20208;-64
2024/01/30 03:19:03;;;;;;;11.63;6.93;;;5.10;99.90;;;;;;5001779;28;20221;-65
2024/01/30 03:21:30;;;;;;;9.53;6.63;;;5.00;99.90;;;;;;5034677;28;20201;-64
2024/01/30 03:23:57;;;;;;;11.93;6.60;;;5.10;99.90;;;;;;5034787;28;20211;-64
2024/01/30 03:26:24;;;;;;;9.80;6.87;;;5.10;99.90;;;;;;5014387;28;20505;-64
2024/01/30 03:28:50;;;;;;;10.57;7.07;;;5.20;99.90;;;;;;5032655;28;20201;-64
2024/01/30 03:31:19;;;;;;;9.60;6.53;;;4.50;99.90;;;;;;5033273;28;20724;-64
2024/01/30 03:33:46;;;;;;;10.30;6.83;;;;;;;;;;5034340;28;20253;-64
2024/01/30 03:36:13;;;;;;;7.90;6.07;;;5.10;99.90;;;;;;5006468;28;20219;-64
2024/01/30 03:38:40;;;;;;;8.43;6.83;;;5.10;99.90;;;;;;5036313;28;20205;-64
2024/01/30 03:41:09;;;;;;;9.97;6.53;;;5.10;99.90;;;;;;5016491;28;20197;-65
2024/01/30 03:43:36;;;;;;;10.30;6.63;;;5.00;99.90;;;;;;5037555;28;20208;-65
2024/01/30 03:46:03;;;;;;;10.90;7.10;;;5.90;99.90;;;;;;5031294;28;20877;-64
2024/01/30 03:48:32;;;;;;;11.07;7.70;;;5.10;99.90;;;;;;5037664;28;20541;-65
2024/01/30 03:50:58;;;;;;;8.50;7.00;;;5.10;99.90;;;;;;5000976;28;20228;-65
2024/01/30 03:53:25;;;;;;;13.70;7.80;;;5.10;99.90;;;;;;5038235;28;20199;-65
2024/01/30 03:55:52;;;;;;;13.13;7.30;;;5.10;99.90;;;;;;5036026;28;20200;-64
2024/01/30 03:58:19;;;;;;;11.93;7.70;;;5.10;99.90;;;;;;5016794;28;20306;-64
2024/01/30 04:00:46;;;;;;;12.00;6.77;;;5.20;99.90;;;;;;5030146;28;20230;-65
2024/01/30 04:03:13;;;;;;;11.53;6.97;;;5.10;99.90;;;;;;5034922;28;20306;-64
2024/01/30 04:05:41;;;;;;;10.90;7.37;;;5.20;99.90;;;;;;5001622;28;20738;-64
2024/01/30 04:08:08;;;;;;;13.20;7.10;;;5.20;99.90;;;;;;5031671;28;20208;-64
2024/01/30 04:10:35;;;;;;;9.63;6.93;;;5.20;99.90;;;;;;5032615;28;20229;-64
2024/01/30 04:13:02;;;;;;;14.47;7.33;;;4.60;99.90;;;;;;5024250;28;20402;-64
2024/01/30 04:15:29;;;;;;;9.50;6.27;;;5.20;99.90;;;;;;5036245;28;20202;-64
2024/01/30 04:17:59;;;;;;;11.73;7.00;;;5.20;99.90;;;;;;5031748;28;20205;-65
2024/01/30 04:20:26;;;;;;;11.97;7.33;;;5.30;99.90;;;;;;5003526;28;20503;-64
2024/01/30 04:22:54;;;;;;;12.00;8.07;;;5.50;99.90;;;;;;5034671;28;20209;-64
2024/01/30 04:25:21;;;;;;;9.43;7.37;;;5.30;99.90;;;;;;5029274;28;21018;-65
2024/01/30 04:27:48;;;;;;;12.30;6.80;;;5.30;99.90;;;;;;5025780;28;20522;-65
2024/01/30 04:30:15;;;;;;;8.87;6.73;;;5.20;99.90;;;;;;5023200;28;20228;-64
2024/01/30 04:32:42;;;;;;;11.13;7.43;;;5.20;99.90;;;;;;5032608;28;20572;-64
2024/01/30 04:35:09;;;;;;;9.50;6.70;;;5.40;99.90;;;;;;4994737;28;20394;-65
2024/01/30 04:37:36;;;;;;;10.97;7.17;;;5.30;99.90;;;;;;5030375;28;20568;-65
2024/01/30 04:40:05;;;;;;;10.77;6.73;;;5.20;99.90;;;;;;5033098;28;20311;-64
2024/01/30 04:42:32;;;;;;;12.87;7.77;;;5.30;99.90;;;;;;5034448;28;20205;-64
2024/01/30 04:44:58;;;;;;;8.60;7.00;;;5.30;99.90;;;;;;5016943;28;20211;-64
2024/01/30 04:47:26;;;;;;;11.47;7.07;;;5.20;99.90;;;;;;5034209;28;20675;-64
2024/01/30 04:49:53;;;;;;;12.40;7.53;;;5.40;99.90;;;;;;5033478;28;20524;-64
2024/01/30 04:52:20;;;;;;;11.67;7.57;;;5.20;99.90;;;;;;4993099;28;20434;-65
2024/01/30 04:54:47;;;;;;;10.30;6.93;;;5.20;99.90;;;;;;5016262;28;20473;-64
2024/01/30 04:57:15;;;;;;;10.63;7.43;;;5.20;99.90;;;;;;5032992;28;20233;-64
2024/01/30 04:59:42;;;;;;;11.73;7.30;;;5.10;99.90;;;;;;5014812;28;20683;-64
2024/01/30 05:02:09;;;;;;;11.40;6.73;;;5.20;99.90;;;;;;5013748;28;21049;-65
2024/01/30 05:04:36;;;;;;;11.80;7.20;;;5.20;99.90;;;;;;5027392;28;20587;-64
2024/01/30 05:07:02;;;;;;;11.63;7.20;;;5.20;99.90;;;;;;4991951;28;20771;-65
2024/01/30 05:09:29;;;;;;;8.67;6.87;;;5.20;99.90;;;;;;5007108;28;20231;-64
2024/01/30 05:11:56;;;;;;;9.73;7.20;;;5.10;99.90;;;;;;5033803;28;20231;-65
2024/01/30 05:14:25;;;;;;;10.53;7.07;;;5.10;99.90;;;;;;5020564;28;20444;-64
2024/01/30 05:16:51;;;;;;;8.47;6.57;;;5.10;99.90;;;;;;5004214;28;20668;-64
2024/01/30 05:19:18;;;;;;;10.13;6.53;;;5.70;99.90;;;;;;5026389;28;20201;-64
2024/01/30 05:21:45;;;;;;;11.13;6.57;;;5.10;99.90;;;;;;5028862;28;20285;-65
2024/01/30 05:24:12;;;;;;;10.43;7.47;;;5.10;99.90;;;;;;4984117;28;20235;-64
2024/01/30 05:26:39;;;;;;;11.43;7.50;;;5.10;99.90;;;;;;5026013;28;20217;-64
2024/01/30 05:29:06;;;;;;;11.23;7.37;;;5.10;99.90;;;;;;5017844;28;20205;-64
2024/01/30 05:31:34;;;;;;;10.87;7.13;;;5.10;99.90;;;;;;5008810;28;20469;-64
2024/01/30 05:34:01;;;;;;;9.07;6.63;;;5.00;99.90;;;;;;5019599;28;20217;-64
2024/01/30 05:36:28;;;;;;;11.03;7.57;;;5.10;99.90;;;;;;5029837;28;20223;-64
2024/01/30 05:38:55;;;;;;;11.57;7.50;;;5.10;99.90;;;;;;4991872;28;20224;-64
2024/01/30 05:41:22;;;;;;;10.03;7.40;;;5.10;99.90;;;;;;5005118;28;20246;-64
2024/01/30 05:43:49;;;;;;;12.73;7.40;;;5.20;99.90;;;;;;5019074;28;20227;-64
2024/01/30 05:46:15;;;;;;;9.17;6.17;;;5.20;99.90;;;;;;5007259;28;20223;-64
2024/01/30 05:48:44;;;;;;;10.73;7.13;;;5.20;99.90;;;;;;5032099;28;20223;-64
2024/01/30 05:51:11;;;;;;;10.20;7.17;;;5.20;99.90;;;;;;5033301;28;20582;-64
2024/01/30 05:53:38;;;;;;;10.63;6.80;;;5.20;99.90;;;;;;5025963;28;20217;-64
2024/01/30 05:56:05;;;;;;;10.40;7.00;;;5.00;99.90;;;;;;4992839;28;20347;-64
2024/01/30 05:58:32;;;;;;;11.33;7.23;;;5.20;99.90;;;;;;5020150;28;22567;-64
2024/01/30 06:00:59;;;;;;;11.07;7.67;;;5.10;99.90;;;;;;5012663;28;20226;-64
2024/01/30 06:03:26;;;;;;;9.20;6.60;;;;;;;;;;5010287;28;20221;-64
2024/01/30 06:05:54;;;;;;;10.27;6.97;;;5.10;99.90;;;;;;5009895;28;20301;-64
2024/01/30 06:08:21;;;;;;;10.47;7.37;;;5.20;99.90;;;;;;5033505;28;20354;-64
2024/01/30 06:10:49;;;;;;;10.33;7.43;;;5.10;99.90;;;;;;4997654;28;20236;-64
2024/01/30 06:13:15;;;;;;;12.33;7.67;;;5.10;99.90;;;;;;5033948;28;20223;-64
2024/01/30 06:15:42;;;;;;;11.23;7.90;;;5.10;99.90;;;;;;5027118;28;20197;-64
2024/01/30 06:18:09;;;;;;;11.37;7.40;;;5.10;99.90;;;;;;5010815;28;20204;-65
2024/01/30 06:20:36;;;;;;;11.27;7.67;;;5.10;99.90;;;;;;5024157;28;20680;-65
2024/01/30 06:23:05;;;;;;;10.83;7.40;;;5.10;99.90;;;;;;5028657;28;20194;-64
2024/01/30 06:25:31;;;;;;;9.93;7.80;;;5.10;99.90;;;;;;4991052;28;20206;-64
2024/01/30 06:27:58;;;;;;;8.50;5.70;;;5.00;99.90;;;;;;5027357;28;20327;-64
2024/01/30 06:30:25;;;;;;;10.70;7.37;;;5.00;99.90;;;;;;5035387;28;20709;-64
2024/01/30 06:32:52;;;;;;;9.37;6.97;;;5.00;99.90;;;;;;5000010;28;20776;-64
2024/01/30 06:35:19;;;;;;;11.93;7.80;;;5.10;99.90;;;;;;5029147;28;20346;-64
2024/01/30 06:37:46;;;;;;;12.03;7.17;;;5.50;99.90;;;;;;5039639;28;20227;-64
2024/01/30 06:40:15;;;;;;;11.90;7.53;;;5.10;99.90;;;;;;5040257;28;20196;-64
2024/01/30 06:42:42;;;;;;;11.37;7.80;;;6.20;99.90;;;;;;5012757;28;20212;-64
2024/01/30 06:45:09;;;;;;;8.13;7.00;;;5.20;99.90;;;;;;5042693;28;20221;-64
2024/01/30 06:47:36;;;;;;;13.33;9.43;;;5.20;99.90;;;;;;5018165;28;20201;-65
2024/01/30 06:50:03;;;;;;;16.03;9.80;;;5.20;99.90;;;;;;5023093;28;20223;-64
2024/01/30 06:52:30;;;;;;;16.20;10.30;;;5.30;99.90;;;;;;5035604;28;20224;-64
2024/01/30 06:54:57;;;;;;;21.87;11.50;;;5.30;99.90;;;;;;5032881;28;20208;-65
2024/01/30 06:57:27;;;;;;;27.33;13.30;;;5.30;99.90;;;;;;5009244;28;20205;-64
2024/01/30 06:59:56;;;;;;;22.10;12.90;;;6.10;99.90;;;;;;5037783;28;20262;-65
2024/01/30 07:02:23;;;;;;;19.70;11.53;;;5.30;99.90;;;;;;5020378;28;20311;-64
2024/01/30 07:04:50;;;;;;;14.13;8.03;;;4.40;99.90;;;;;;5018139;28;20203;-65
2024/01/30 07:07:17;;;;;;;15.40;8.93;;;5.30;99.90;;;;;;5030248;28;20206;-65
2024/01/30 07:09:44;;;;;;;12.47;8.87;;;5.30;99.90;;;;;;5034190;28;20220;-65
2024/01/30 07:12:11;;;;;;;14.63;9.03;;;5.30;99.90;;;;;;5002240;28;20224;-65
2024/01/30 07:14:39;;;;;;;11.17;8.43;;;5.40;99.90;;;;;;5036771;28;20409;-65
2024/01/30 07:17:07;;;;;;;10.60;7.50;;;5.40;99.90;;;;;;5022489;28;20693;-65
2024/01/30 07:19:34;;;;;;;11.00;7.77;;;5.40;99.90;;;;;;5024727;28;20396;-66
2024/01/30 07:22:01;;;;;;;9.60;7.50;;;5.40;99.90;;;;;;5015865;28;20753;-65
2024/01/30 07:24:28;;;;;;;12.97;7.93;;;5.40;99.90;;;;;;5031482;28;20302;-64
2024/01/30 07:26:55;;;;;;;15.83;7.77;;;5.40;99.90;;;;;;5026653;28;20196;-65
2024/01/30 07:29:22;;;;;;;11.43;7.07;;;5.40;99.90;;;;;;5000518;28;20736;-65
2024/01/30 07:31:50;;;;;;;16.07;8.03;;;5.40;99.90;;;;;;5038484;28;20241;-65
2024/01/30 07:34:17;;;;;;;12.10;7.93;;;5.50;99.90;;;;;;5010293;28;20209;-65
2024/01/30 07:36:44;;;;;;;12.67;8.43;;;6.30;99.90;;;;;;5022092;28;20210;-65
2024/01/30 07:39:11;;;;;;;12.97;7.97;;;5.40;99.90;;;;;;5031962;28;21010;-65
2024/01/30 07:41:38;;;;;;;12.43;7.67;;;5.90;99.90;;;;;;5023780;28;20379;-65
2024/01/30 07:44:05;;;;;;;11.43;7.50;;;5.40;99.90;;;;;;5001160;28;20299;-65
2024/01/30 07:46:32;;;;;;;12.63;7.63;;;5.50;99.90;;;;;;5034732;28;20222;-65
2024/01/30 07:49:00;;;;;;;10.87;7.87;;;5.50;99.90;;;;;;5025688;28;20197;-64
2024/01/30 07:51:28;;;;;;;11.57;7.40;;;5.20;99.90;;;;;;5021516;28;20567;-65
2024/01/30 07:53:55;;;;;;;12.93;7.97;;;5.60;99.90;;;;;;5035622;28;20215;-65
2024/01/30 07:56:22;;;;;;;11.87;7.20;;;5.70;99.90;;;;;;5032550;28;20711;-65
2024/01/30 07:58:49;;;;;;;9.90;7.27;;;5.80;99.90;;;;;;4994983;28;20205;-65
2024/01/30 08:01:16;;;;;;;11.23;7.40;;;5.70;99.90;;;;;;5031419;28;20201;-65
2024/01/30 08:03:43;;;;;;;10.93;7.23;;;5.80;99.90;;;;;;5036697;28;20200;-65
2024/01/30 08:06:12;;;;;;;13.07;7.93;;;5.80;99.90;;;;;;5021317;28;20355;-65
2024/01/30 08:08:39;;;;;;;14.10;7.70;;;5.80;99.90;;;;;;5025653;28;20202;-66
2024/01/30 08:11:07;;;;;;;11.53;7.90;;;5.90;99.90;;;;;;5030438;28;20624;-65
2024/01/30 08:13:34;;;;;;;9.07;7.27;;;5.90;99.90;;;;;;5024501;28;20408;-66
2024/01/30 08:16:01;;;;;;;10.93;7.93;;;6.60;99.90;;;;;;5000005;28;20238;-66
2024/01/30 08:18:28;;;;;;;11.50;7.53;;;6.80;99.90;;;;;;5029652;28;20680;-66
2024/01/30 08:20:55;;;;;;;11.20;7.40;;;6.00;99.90;;;;;;5017558;28;20905;-66
2024/01/30 08:23:23;;;;;;;10.37;7.40;;;6.00;99.90;;;;;;5022098;28;20517;-65
2024/01/30 08:25:50;;;;;;;11.73;7.93;;;6.10;99.90;;;;;;5032564;28;20204;-65
2024/01/30 08:28:16;;;;;;;10.23;7.27;;;6.10;99.90;;;;;;5007552;28;21555;-65
2024/01/30 08:30:43;;;;;;;12.23;8.20;;;6.10;99.90;;;;;;4995681;28;20722;-65
2024/01/30 08:33:10;;;;;;;12.53;7.73;;;6.10;99.90;;;;;;5022237;28;20207;-65
2024/01/30 08:35:38;;;;;;;11.27;8.07;;;6.20;99.90;;;;;;5015975;28;20235;-65
2024/01/30 08:38:05;;;;;;;15.73;8.03;;;6.20;99.90;;;;;;5018202;28;20193;-65
2024/01/30 08:40:33;;;;;;;14.80;7.87;;;6.20;99.90;;;;;;5031597;28;20211;-65
2024/01/30 08:43:00;;;;;;;11.83;7.87;;;6.20;99.90;;;;;;5032217;28;20239;-65
2024/01/30 08:45:27;;;;;;;10.90;7.27;;;6.30;99.90;;;;;;4985714;28;26883;-65
2024/01/30 08:47:53;;;;;;;10.97;7.27;;;6.20;99.90;;;;;;5017269;28;20200;-65
2024/01/30 08:50:20;;;;;;;9.73;7.37;;;6.50;99.90;;;;;;5016466;28;20333;-65
2024/01/30 08:52:47;;;;;;;14.13;7.10;;;;;;;;;;5028797;28;20244;-65
2024/01/30 08:55:14;;;;;;;11.90;7.23;;;6.40;99.90;;;;;;5022537;28;20201;-65
2024/01/30 08:57:43;;;;;;;10.27;7.10;;;6.40;99.90;;;;;;5032770;28;20667;-65
2024/01/30 09:00:11;;;;;;;12.63;6.80;;;6.80;99.90;;;;;;5017519;28;20525;-65
2024/01/30 09:02:38;;;;;;;10.67;7.13;;;6.40;99.90;;;;;;5002308;28;20213;-65
2024/01/30 09:05:05;;;;;;;11.27;7.87;;;6.50;99.90;;;;;;5031247;28;20201;-65
2024/01/30 09:07:32;;;;;;;10.40;6.87;;;6.50;99.90;;;;;;5024885;28;20211;-65
2024/01/30 09:09:59;;;;;;;9.80;7.43;;;6.50;99.90;;;;;;5026104;28;20441;-65
2024/01/30 09:12:25;;;;;;;10.47;6.53;;;6.60;99.90;;;;;;5037231;28;20456;-65
2024/01/30 09:14:54;;;;;;;11.33;7.43;;;6.70;99.90;;;;;;5023166;28;20201;-65
2024/01/30 09:17:21;;;;;;;12.17;7.37;;;6.70;99.90;;;;;;5002132;28;20343;-65
2024/01/30 09:19:48;;;;;;;12.77;7.70;;;6.70;99.90;;;;;;5024748;28;20230;-65
2024/01/30 09:22:15;;;;;;;11.10;7.83;;;6.80;99.90;;;;;;5025624;28;20220;-65
2024/01/30 09:24:42;;;;;;;9.00;6.97;;;6.80;99.90;;;;;;5026530;28;20208;-65
2024/01/30 09:27:09;;;;;;;10.00;7.97;;;6.90;99.90;;;;;;5027111;28;20509;-64
2024/01/30 09:29:36;;;;;;;10.77;7.47;;;6.80;99.90;;;;;;5041824;28;20201;-65
2024/01/30 09:32:05;;;;;;;12.63;7.03;;;6.90;99.90;;;;;;5012859;28;21376;-65
2024/01/30 09:34:32;;;;;;;16.77;7.53;;;6.90;99.90;;;;;;4995878;28;20223;-65
2024/01/30 09:36:59;;;;;;;9.60;6.60;;;7.00;99.90;;;;;;5027039;28;20210;-65
2024/01/30 09:39:26;;;;;;;10.43;7.43;;;7.00;99.90;;;;;;5033288;28;20197;-65
2024/01/30 09:42:03;;;;;;;11.43;8.07;;;7.00;99.90;;;;;;5027178;28;20226;-66
2024/01/30 09:44:30;;;;;;;11.63;7.47;;;8.10;99.90;;;;;;5033766;28;20231;-65
2024/01/30 09:47:03;;;;;;;13.07;6.90;;;7.20;99.90;;;;;;5027131;28;20760;-65
2024/01/30 09:49:33;;;;;;;9.53;6.80;;;7.20;99.90;;;;;;5008794;28;20228;-65
2024/01/30 09:52:01;;;;;;;11.37;7.77;;;7.30;99.90;;;;;;5034036;28;20228;-65
2024/01/30 09:54:31;;;;;;;12.30;7.63;;;7.30;99.90;;;;;;5023667;28;20428;-65
2024/01/30 09:56:57;;;;;;;10.07;6.80;;;7.30;99.90;;;;;;5026379;28;20212;-65
2024/01/30 09:59:24;;;;;;;11.10;7.67;;;7.40;99.90;;;;;;5028923;28;20523;-65
2024/01/30 10:01:52;;;;;;;12.13;7.90;;;7.40;99.90;;;;;;5020079;28;20207;-66
2024/01/30 10:04:19;;;;;;;10.20;7.23;;;7.40;99.90;;;;;;4999275;28;20229;-65
2024/01/30 10:06:48;;;;;;;15.13;7.77;;;7.50;99.90;;;;;;5028164;28;20615;-65
2024/01/30 10:09:15;;;;;;;8.73;6.50;;;7.40;99.90;;;;;;5021928;28;20221;-64
2024/01/30 10:11:42;;;;;;;11.47;7.63;;;7.50;99.90;;;;;;5024624;28;20584;-65
2024/01/30 10:14:08;;;;;;;11.97;7.00;;;7.50;99.90;;;;;;5028720;28;20198;-65
2024/01/30 10:16:36;;;;;;;10.87;7.43;;;7.50;99.90;;;;;;5018381;28;20678;-65
2024/01/30 10:19:03;;;;;;;9.82;6.88;;;7.50;99.90;;;;;;5026082;28;20217;-65
2024/01/30 10:21:31;;;;;;;12.67;7.53;;;7.60;99.90;;;;;;4995119;28;20220;-64
2024/01/30 10:23:59;;;;;;;11.30;6.53;;;7.60;99.90;;;;;;5021679;28;20194;-65
2024/01/30 10:26:26;;;;;;;11.67;6.90;;;7.70;99.90;;;;;;5029411;28;20663;-65
2024/01/30 10:28:53;;;;;;;8.30;6.50;;;7.70;99.90;;;;;;5022351;28;20438;-65
2024/01/30 10:31:20;;;;;;;11.30;7.20;;;;;;;;;;5039151;28;20224;-65
2024/01/30 10:33:47;;;;;;;10.87;7.33;;;7.80;99.90;;;;;;5020979;28;20760;-65
2024/01/30 10:36:15;;;;;;;14.93;7.33;;;7.80;99.90;;;;;;5000685;28;20693;-65
2024/01/30 10:38:46;;;;;;;12.07;7.57;;;7.90;99.90;;;;;;5033500;28;20201;-65
2024/01/30 10:41:18;;;;;;;11.90;6.50;;;7.90;99.90;;;;;;5023465;28;20659;-65
2024/01/30 10:43:53;;;;;;;14.90;7.50;;;8.00;99.90;;;;;;5027297;28;20388;-65
2024/01/30 10:46:22;;;;;;;8.43;6.40;;;8.00;99.90;;;;;;5035775;28;20197;-65
2024/01/30 10:48:57;;;;;;;10.13;6.23;;;8.00;99.90;;;;;;5020265;28;20644;-65
2024/01/30 10:51:27;;;;;;;9.63;7.10;;;8.10;99.90;;;;;;5005524;28;20361;-65
2024/01/30 10:53:54;;;;;;;8.90;6.93;;;8.20;99.90;;;;;;5034739;28;20420;-65
2024/01/30 10:56:23;;;;;;;10.73;7.27;;;8.20;99.90;;;;;;5023492;28;20209;-65
2024/01/30 10:58:52;;;;;;;13.90;8.60;;;8.20;99.90;;;;;;5017370;28;20746;-65
2024/01/30 11:01:20;;;;;;;10.23;7.47;;;8.30;99.90;;;;;;5032427;28;20207;-64
2024/01/30 11:03:47;;;;;;;10.53;6.97;;;8.30;99.90;;;;;;5024928;28;20225;-65
2024/01/30 11:06:18;;;;;;;9.20;7.03;;;8.30;99.90;;;;;;5008844;28;21649;-65
2024/01/30 11:08:45;;;;;;;10.07;6.93;;;8.30;99.90;;;;;;5023463;28;21276;-65
2024/01/30 11:11:12;;;;;;;12.90;7.47;;;8.40;99.90;;;;;;5023601;28;20905;-65
2024/01/30 11:13:42;;;;;;;11.35;7.13;;;8.30;99.90;;;;;;5017870;28;20209;-65
2024/01/30 11:16:13;;;;;;;14.90;7.95;;;8.40;99.90;;;;;;5032089;28;20688;-65
2024/01/30 11:18:40;;;;;;;10.90;7.70;;;8.50;99.90;;;;;;5031945;28;20227;-65
2024/01/30 11:21:07;;;;;;;12.13;7.68;;;8.40;99.90;;;;;;5011772;28;20688;-64
2024/01/30 11:23:35;;;;;;;13.90;8.77;;;8.50;99.90;;;;;;5038383;28;20351;-65
2024/01/30 11:26:03;;;;;;;11.23;7.55;;;8.50;99.90;;;;;;5037747;28;20263;-65
2024/01/30 11:28:34;;;;;;;11.90;7.35;;;8.50;99.90;;;;;;5025542;28;20221;-64
2024/01/30 11:31:06;;;;;;;12.98;7.63;;;8.50;99.90;;;;;;5028478;28;20228;-65
2024/01/30 11:33:34;;;;;;;11.73;7.68;;;8.50;99.90;;;;;;5039398;28;20228;-66
2024/01/30 11:36:02;;;;;;;9.32;6.82;;;8.50;99.90;;;;;;5009362;28;20214;-65
2024/01/30 11:38:29;;;;;;;8.95;7.20;;;8.50;99.90;;;;;;5039864;28;20665;-65
2024/01/30 11:40:57;;;;;;;13.30;7.78;;;8.60;99.90;;;;;;5032986;28;20204;-65
2024/01/30 11:43:24;;;;;;;13.88;9.10;;;8.60;99.90;;;;;;5029351;28;20205;-65
2024/01/30 11:45:51;;;;;;;16.48;8.32;;;8.60;99.90;;;;;;5031667;28;20197;-65
2024/01/30 11:48:20;;;;;;;10.15;6.75;;;8.60;99.90;;;;;;5041034;28;20201;-65
2024/01/30 11:50:48;;;;;;;13.98;7.40;;;8.60;99.90;;;;;;5005909;28;20532;-65
2024/01/30 11:53:14;;;;;;;13.05;8.63;;;8.70;99.90;;;;;;5037397;28;20523;-65
2024/01/30 11:55:41;;;;;;;12.52;8.90;;;8.70;99.90;;;;;;5031276;28;20274;-65
2024/01/30 11:58:08;;;;;;;15.88;9.05;;;8.80;99.90;;;;;;5003814;28;20225;-65
2024/01/30 12:00:35;;;;;;;13.15;8.95;;;8.90;99.90;;;;;;5031709;28;20223;-65
2024/01/30 12:03:03;;;;;;;15.55;10.75;;;8.90;99.90;;;;;;4997185;28;20228;-65
2024/01/30 12:05:31;;;;;;;12.63;9.88;;;8.90;99.90;;;;;;5038037;28;20223;-65
2024/01/30 12:07:59;;;;;;;12.45;9.25;;;8.90;99.90;;;;;;4999701;28;28488;-65
2024/01/30 12:10:27;;;;;;;15.38;9.70;;;8.90;99.90;;;;;;5007295;28;20221;-65
2024/01/30 12:12:55;;;;;;;12.68;8.50;;;8.90;99.90;;;;;;4994511;28;20228;-65
2024/01/30 12:15:23;;;;;;;11.52;9.07;;;8.90;99.90;;;;;;5023713;28;20204;-65
2024/01/30 12:17:50;;;;;;;11.88;8.10;;;9.00;99.90;;;;;;5024038;28;20349;-65
2024/01/30 12:20:19;;;;;;;15.10;9.43;;;9.00;99.90;;;;;;5020891;28;20577;-65
2024/01/30 12:22:48;;;;;;;12.75;8.40;;;9.10;99.90;;;;;;4999225;28;20266;-65
2024/01/30 12:25:16;;;;;;;16.60;8.75;;;9.10;99.90;;;;;;5032612;28;20236;-65
2024/01/30 12:27:45;;;;;;;14.30;9.18;;;9.30;99.90;;;;;;5007800;28;20353;-65
2024/01/30 12:30:14;;;;;;;11.82;9.20;;;9.20;99.90;;;;;;4999017;28;20234;-65
2024/01/30 12:32:43;;;;;;;15.00;9.25;;;9.20;99.90;;;;;;5027042;28;20256;-65
2024/01/30 12:35:11;;;;;;;14.80;9.40;;;9.30;99.90;;;;;;5013476;28;20220;-65
2024/01/30 12:37:38;;;;;;;14.02;8.95;;;9.30;99.90;;;;;;5012456;28;20699;-65
2024/01/30 12:40:09;;;;;;;16.58;9.32;;;9.40;99.90;;;;;;5003887;28;20275;-65
2024/01/30 12:42:36;;;;;;;14.57;9.38;;;9.30;99.90;;;;;;5030850;28;20322;-65
2024/01/30 12:45:02;;;;;;;13.80;7.68;;;8.50;99.90;;;;;;5027781;28;20322;-65
2024/01/30 12:47:29;;;;;;;12.75;7.82;;;9.30;99.90;;;;;;5011546;28;20329;-65
2024/01/30 12:49:56;;;;;;;14.65;7.90;;;9.30;99.90;;;;;;5015556;28;20457;-65